Time;durP1;ratioP1;P1;durP2;ratioP2;P2;SDS_P1;SDS_P2;PMS_P1;PMS_P2;Temp;Humidity;BMP_temperature;BMP_pressure;BME280_temperature;BME280_humidity;BME280_pressure;Samples;Min_cycle;Max_cycle;Signal;HPM_P1;HPM_P2
2023/04/12 00:00:10;;;;;;;1.92;0.98;;;;;;;;;;5049217;28;20058;-88
2023/04/12 00:02:37;;;;;;;2.72;1.10;;;;;;;;;;5070937;28;20033;-87
2023/04/12 00:05:02;;;;;;;3.00;1.15;;;;;;;;;;5072727;28;20028;-87
2023/04/12 00:07:29;;;;;;;2.53;1.10;;;;;;;;;;5074275;28;20059;-86
2023/04/12 00:09:55;;;;;;;3.03;1.40;;;;;;;;;;5072563;28;20040;-86
2023/04/12 00:12:20;;;;;;;3.63;0.95;;;;;;;;;;5071021;28;20127;-87
2023/04/12 00:14:46;;;;;;;4.00;1.20;;;;;;;;;;5071436;28;20128;-86
2023/04/12 00:17:11;;;;;;;4.32;1.00;;;;;;;;;;5073049;28;20040;-86
2023/04/12 00:19:40;;;;;;;2.42;1.10;;;;;;;;;;5072625;28;20098;-84
2023/04/12 00:22:10;;;;;;;2.60;1.30;;;;;;;;;;5069775;28;20517;-85
2023/04/12 00:24:39;;;;;;;2.30;1.10;;;;;;;;;;5098044;28;20044;-84
2023/04/12 00:27:05;;;;;;;4.15;1.20;;;;;;;;;;5074392;28;20029;-86
2023/04/12 00:29:31;;;;;;;3.88;1.17;;;;;;;;;;5051311;28;20090;-86
2023/04/12 00:31:58;;;;;;;2.67;1.27;;;;;;;;;;5085788;28;20032;-86
2023/04/12 00:34:24;;;;;;;3.15;1.10;;;;;;;;;;5072761;28;20536;-86
2023/04/12 00:36:49;;;;;;;3.92;0.90;;;;;;;;;;5071313;28;20060;-85
2023/04/12 00:39:15;;;;;;;2.03;0.90;;;;;;;;;;5083856;28;20067;-85
2023/04/12 00:41:40;;;;;;;2.47;1.00;;;;;;;;;;5073665;28;20417;-87
2023/04/12 00:44:06;;;;;;;3.95;1.30;;;;;;;;;;5069202;28;20075;-85
2023/04/12 00:46:33;;;;;;;3.13;1.30;;;;;;;;;;5073583;28;20094;-87
2023/04/12 00:49:00;;;;;;;2.00;0.95;;;;;;;;;;5071920;28;20494;-86
2023/04/12 00:51:25;;;;;;;2.45;1.10;;;;;;;;;;5071559;28;20414;-84
2023/04/12 00:53:56;;;;;;;4.55;1.20;;;;;;;;;;5054974;28;20038;-86
2023/04/12 00:56:23;;;;;;;5.90;1.30;;;;;;;;;;5073307;28;20036;-85
2023/04/12 00:58:48;;;;;;;2.83;1.10;;;;;;;;;;5072047;28;20028;-84
2023/04/12 01:01:15;;;;;;;3.90;1.05;;;;;;;;;;5071574;28;20489;-86
2023/04/12 01:03:42;;;;;;;3.72;1.00;;;;;;;;;;5071583;28;20036;-85
2023/04/12 01:06:28;;;;;;;3.33;1.30;;;;;;;;;;5073421;28;20101;-85
2023/04/12 01:09:27;;;;;;;2.28;1.17;;;;;;;;;;5073037;28;20029;-86
2023/04/12 01:12:17;;;;;;;1.65;1.00;;;;;;;;;;5066415;28;20051;-86
2023/04/12 01:15:12;;;;;;;3.20;1.20;;;;;;;;;;5072024;28;20607;-85
2023/04/12 01:18:08;;;;;;;2.97;1.05;;;;;;;;;;5069589;28;20513;-86
2023/04/12 01:20:48;;;;;;;4.03;1.15;;;;;;;;;;5067932;28;20052;-85
2023/04/12 01:23:50;;;;;;;2.13;1.00;;;;;;;;;;5057987;28;20119;-86
2023/04/12 01:26:22;;;;;;;2.97;1.00;;;;;;;;;;5076767;28;20092;-86
2023/04/12 01:28:51;;;;;;;2.47;1.20;;;;;;;;;;5057204;28;20036;-85
2023/04/12 01:31:19;;;;;;;2.28;1.02;;;;;;;;;;5072265;28;20529;-84
2023/04/12 01:33:46;;;;;;;3.25;1.10;;;;;;;;;;5068138;28;20037;-86
2023/04/12 01:36:20;;;;;;;1.65;1.10;;;;;;;;;;5070550;28;20032;-86
2023/04/12 01:38:48;;;;;;;2.15;0.90;;;;;;;;;;5070720;28;20043;-85
2023/04/12 01:41:15;;;;;;;1.73;1.10;;;;;;;;;;5070579;28;20032;-84
2023/04/12 01:43:45;;;;;;;4.82;1.33;;;;;;;;;;5071762;28;20032;-85
2023/04/12 01:46:12;;;;;;;2.47;1.13;;;;;;;;;;5084610;28;20037;-84
2023/04/12 01:48:38;;;;;;;2.78;1.02;;;;;;;;;;5086071;28;20490;-86
2023/04/12 01:51:06;;;;;;;2.67;1.10;;;;;;;;;;5077836;28;20397;-84
2023/04/12 01:53:44;;;;;;;1.75;0.90;;;;;;;;;;5072661;28;20055;-88
2023/04/12 01:56:10;;;;;;;3.35;1.27;;;;;;;;;;5072044;28;20040;-87
2023/04/12 01:58:38;;;;;;;3.20;1.30;;;;;;;;;;5067739;28;20032;-84
2023/04/12 02:01:06;;;;;;;2.50;1.10;;;;;;;;;;5053899;28;20097;-86
2023/04/12 02:03:32;;;;;;;2.65;1.13;;;;;;;;;;5067769;28;20036;-86
2023/04/12 02:05:58;;;;;;;2.55;1.27;;;;;;;;;;5052480;28;20037;-86
2023/04/12 02:08:24;;;;;;;6.53;1.60;;;;;;;;;;5072112;28;20036;-86
2023/04/12 02:10:51;;;;;;;2.35;1.15;;;;;;;;;;5050169;28;20514;-84
2023/04/12 02:13:19;;;;;;;4.13;1.38;;;;;;;;;;5071181;28;20036;-86
2023/04/12 02:15:45;;;;;;;3.53;1.33;;;;;;;;;;5066421;28;20029;-85
2023/04/12 02:18:12;;;;;;;9.35;1.65;;;;;;;;;;5071904;28;20024;-85
2023/04/12 02:20:39;;;;;;;3.88;1.27;;;;;;;;;;5052568;28;20509;-84
2023/04/12 02:23:06;;;;;;;2.35;1.00;;;;;;;;;;5070151;28;20067;-85
2023/04/12 02:25:32;;;;;;;3.15;1.10;;;;;;;;;;5072171;28;20036;-86
2023/04/12 02:28:05;;;;;;;3.20;1.25;;;;;;;;;;5072392;28;20037;-85
2023/04/12 02:30:32;;;;;;;5.18;1.13;;;;;;;;;;5061450;28;20047;-86
2023/04/12 02:32:58;;;;;;;1.25;0.90;;;;;;;;;;5070368;28;20032;-86
2023/04/12 02:35:30;;;;;;;1.63;1.00;;;;;;;;;;5085386;28;20028;-86
2023/04/12 02:38:06;;;;;;;3.65;1.10;;;;;;;;;;5070405;28;20066;-87
2023/04/12 02:40:41;;;;;;;4.45;1.20;;;;;;;;;;5067993;28;20406;-86
2023/04/12 02:43:11;;;;;;;2.40;1.20;;;;;;;;;;5069375;28;20124;-86
2023/04/12 02:45:41;;;;;;;3.17;0.93;;;;;;;;;;5062655;28;20079;-85
2023/04/12 02:48:08;;;;;;;3.40;1.27;;;;;;;;;;5071529;28;20457;-86
2023/04/12 02:50:36;;;;;;;2.53;1.10;;;;;;;;;;5055668;28;20097;-86
2023/04/12 02:53:10;;;;;;;2.10;1.00;;;;;;;;;;5073453;28;20113;-86
2023/04/12 02:55:37;;;;;;;4.15;1.10;;;;;;;;;;5069464;28;20119;-86
2023/04/12 02:58:05;;;;;;;1.67;1.15;;;;;;;;;;5057210;28;20040;-85
2023/04/12 03:00:34;;;;;;;2.55;1.10;;;;;;;;;;5089882;28;20124;-84
2023/04/12 03:03:02;;;;;;;2.80;1.02;;;;;;;;;;5090178;28;20043;-86
2023/04/12 03:05:29;;;;;;;3.33;1.00;;;;;;;;;;5096340;28;20036;-88
2023/04/12 03:07:55;;;;;;;2.20;1.10;;;;;;;;;;5074196;28;20635;-87
2023/04/12 03:10:29;;;;;;;3.60;1.10;;;;;;;;;;5072774;28;20444;-86
2023/04/12 03:13:01;;;;;;;3.43;1.10;;;;;;;;;;5052407;28;20037;-85
2023/04/12 03:15:40;;;;;;;2.22;1.00;;;;;;;;;;5074976;28;20297;-87
2023/04/12 03:18:06;;;;;;;2.30;1.08;;;;;;;;;;5077448;28;20394;-86
2023/04/12 03:20:42;;;;;;;3.88;1.30;;;;;;;;;;5077401;28;20525;-85
2023/04/12 03:23:08;;;;;;;3.35;1.20;;;;;;;;;;5076848;28;20028;-86
2023/04/12 03:25:37;;;;;;;3.10;1.20;;;;;;;;;;5078288;28;20032;-84
2023/04/12 03:28:23;;;;;;;3.90;1.20;;;;;;;;;;5068934;28;20037;-86
2023/04/12 03:30:50;;;;;;;2.42;1.17;;;;;;;;;;5080965;28;20021;-85
2023/04/12 03:33:19;;;;;;;2.60;1.33;;;;;;;;;;5074273;28;20042;-86
2023/04/12 03:35:46;;;;;;;3.72;1.13;;;;;;;;;;5073457;28;20040;-86
2023/04/12 03:38:13;;;;;;;3.42;1.30;;;;;;;;;;5089687;28;20053;-85
2023/04/12 03:40:41;;;;;;;1.75;1.27;;;;;;;;;;5069537;28;20032;-85
2023/04/12 03:43:08;;;;;;;3.00;1.10;;;;;;;;;;5073045;28;20481;-87
2023/04/12 03:45:33;;;;;;;2.80;1.27;;;;;;;;;;5072959;28;20036;-85
2023/04/12 03:48:01;;;;;;;2.45;1.30;;;;;;;;;;5071641;28;20425;-87
2023/04/12 03:50:30;;;;;;;4.63;1.20;;;;;;;;;;5089544;28;20044;-86
2023/04/12 03:52:56;;;;;;;3.53;1.25;;;;;;;;;;5072877;28;20048;-86
2023/04/12 03:55:27;;;;;;;3.67;1.15;;;;;;;;;;5089172;28;20490;-85
2023/04/12 03:57:55;;;;;;;1.90;1.10;;;;;;;;;;5072584;28;20024;-86
2023/04/12 04:00:22;;;;;;;1.77;1.10;;;;;;;;;;5071746;28;20021;-85
2023/04/12 04:03:02;;;;;;;2.35;1.10;;;;;;;;;;5057539;28;20043;-85
2023/04/12 04:05:31;;;;;;;3.85;1.15;;;;;;;;;;5072577;28;20032;-83
2023/04/12 04:08:01;;;;;;;2.67;1.10;;;;;;;;;;5067099;28;20039;-85
2023/04/12 04:10:29;;;;;;;1.83;1.00;;;;;;;;;;5072287;28;20031;-85
2023/04/12 04:12:55;;;;;;;4.90;1.20;;;;;;;;;;5070686;28;20131;-85
2023/04/12 04:15:21;;;;;;;2.00;1.10;;;;;;;;;;5088368;28;20482;-84
2023/04/12 04:17:48;;;;;;;2.35;1.08;;;;;;;;;;5059172;28;20028;-83
2023/04/12 04:20:16;;;;;;;4.32;1.27;;;;;;;;;;5080830;28;20028;-86
2023/04/12 04:22:47;;;;;;;2.45;1.23;;;;;;;;;;5076427;28;20545;-87
2023/04/12 04:25:14;;;;;;;4.20;1.17;;;;;;;;;;5064440;28;20041;-86
2023/04/12 04:27:48;;;;;;;3.95;1.30;;;;;;;;;;5078410;28;20032;-86
2023/04/12 04:30:17;;;;;;;2.72;1.30;;;;;;;;;;5056600;28;20436;-86
2023/04/12 04:32:47;;;;;;;4.60;1.20;;;;;;;;;;5061534;28;20024;-85
2023/04/12 04:35:14;;;;;;;2.42;1.20;;;;;;;;;;5059936;28;20086;-84
2023/04/12 04:37:52;;;;;;;3.47;1.30;;;;;;;;;;5071589;28;20449;-85
2023/04/12 04:40:20;;;;;;;4.70;1.50;;;;;;;;;;5087241;28;20032;-86
2023/04/12 04:42:53;;;;;;;2.47;1.20;;;;;;;;;;5071727;28;20115;-86
2023/04/12 04:45:25;;;;;;;;;;;;;;;;;;5072017;28;20094;-83
2023/04/12 04:47:55;;;;;;;3.75;1.55;;;;;;;;;;5055315;28;19912;-86
2023/04/12 04:50:22;;;;;;;3.30;1.60;;;;;;;;;;5070810;28;20064;-83
2023/04/12 04:52:52;;;;;;;3.15;1.40;;;;;;;;;;5047936;28;20032;-85
2023/04/12 04:55:23;;;;;;;2.55;1.30;;;;;;;;;;5066624;28;20532;-84
2023/04/12 04:57:49;;;;;;;3.05;1.63;;;;;;;;;;5067998;28;20048;-86
2023/04/12 05:00:17;;;;;;;3.90;1.65;;;;;;;;;;5071549;28;20020;-86
2023/04/12 05:02:47;;;;;;;3.65;1.48;;;;;;;;;;5071430;28;20078;-85
2023/04/12 05:05:22;;;;;;;;;;;;;;;;;;5071590;28;20032;-80
2023/04/12 05:07:48;;;;;;;2.38;1.40;;;;;;;;;;5070960;28;19912;-84
2023/04/12 05:10:15;;;;;;;3.33;1.80;;;;;;;;;;5088067;28;20031;-87
2023/04/12 05:12:41;;;;;;;6.03;1.60;;;;;;;;;;5068969;28;20041;-85
2023/04/12 05:15:07;;;;;;;3.47;1.58;;;;;;;;;;5071333;28;20047;-84
2023/04/12 05:17:33;;;;;;;4.38;1.80;;;;;;;;;;5071037;28;20031;-83
2023/04/12 05:19:59;;;;;;;4.55;2.20;;;;;;;;;;5068407;28;20147;-83
2023/04/12 05:22:28;;;;;;;3.53;1.70;;;;;;;;;;5070607;28;20029;-84
2023/04/12 05:24:54;;;;;;;4.10;1.60;;;;;;;;;;5072110;28;20028;-84
2023/04/12 05:27:20;;;;;;;3.92;1.90;;;;;;;;;;5070809;28;20093;-85
2023/04/12 05:29:47;;;;;;;3.80;1.90;;;;;;;;;;5070384;28;20055;-83
2023/04/12 05:32:14;;;;;;;4.47;1.92;;;;;;;;;;5062122;28;20036;-88
2023/04/12 05:34:41;;;;;;;5.85;1.90;;;;;;;;;;5076997;28;20037;-86
2023/04/12 05:37:07;;;;;;;3.35;1.60;;;;;;;;;;5092563;28;20072;-84
2023/04/12 05:39:36;;;;;;;3.83;1.90;;;;;;;;;;5071292;28;20028;-87
2023/04/12 05:42:01;;;;;;;2.38;1.50;;;;;;;;;;5073152;28;20421;-83
2023/04/12 05:44:27;;;;;;;4.15;1.83;;;;;;;;;;5048651;28;20060;-87
2023/04/12 05:46:52;;;;;;;2.50;1.30;;;;;;;;;;5067610;28;20037;-85
2023/04/12 05:49:18;;;;;;;4.65;1.65;;;;;;;;;;5053027;28;20502;-85
2023/04/12 05:51:43;;;;;;;2.67;1.30;;;;;;;;;;5071471;28;20478;-83
2023/04/12 05:54:20;;;;;;;3.72;1.38;;;;;;;;;;5056210;28;20032;-84
2023/04/12 05:56:46;;;;;;;2.47;1.17;;;;;;;;;;5063706;28;20066;-86
2023/04/12 05:59:12;;;;;;;3.45;1.40;;;;;;;;;;5069718;28;20033;-85
2023/04/12 06:01:41;;;;;;;2.83;1.10;;;;;;;;;;5055334;28;20032;-83
2023/04/12 06:04:07;;;;;;;4.70;1.50;;;;;;;;;;5073539;28;20033;-87
2023/04/12 06:06:33;;;;;;;2.25;1.20;;;;;;;;;;5073310;28;20040;-86
2023/04/12 06:09:01;;;;;;;4.53;1.20;;;;;;;;;;5089643;28;20079;-83
2023/04/12 06:11:27;;;;;;;3.05;1.30;;;;;;;;;;5074622;28;20082;-85
2023/04/12 06:13:54;;;;;;;3.25;1.40;;;;;;;;;;5073622;28;20028;-85
2023/04/12 06:16:20;;;;;;;6.38;1.60;;;;;;;;;;5073881;28;20383;-84
2023/04/12 06:18:46;;;;;;;2.42;1.30;;;;;;;;;;5073982;28;20029;-86
2023/04/12 06:21:12;;;;;;;2.78;1.23;;;;;;;;;;5070398;28;20422;-86
2023/04/12 06:23:39;;;;;;;3.47;1.30;;;;;;;;;;5078584;28;20035;-84
2023/04/12 06:26:05;;;;;;;2.95;1.27;;;;;;;;;;5080440;28;20033;-86
2023/04/12 06:28:31;;;;;;;3.75;1.70;;;;;;;;;;5079386;28;20032;-85
2023/04/12 06:30:57;;;;;;;4.03;1.55;;;;;;;;;;5079020;28;20111;-84
2023/04/12 06:33:23;;;;;;;4.45;1.30;;;;;;;;;;5078601;28;20120;-84
2023/04/12 06:35:49;;;;;;;3.45;1.38;;;;;;;;;;5080459;28;20046;-85
2023/04/12 06:38:17;;;;;;;6.00;1.48;;;;;;;;;;5101521;28;20036;-85
2023/04/12 06:40:42;;;;;;;3.80;1.38;;;;;;;;;;5075496;28;20043;-85
2023/04/12 06:43:08;;;;;;;2.88;1.13;;;;;;;;;;5073939;28;20036;-84
2023/04/12 06:45:33;;;;;;;3.05;1.25;;;;;;;;;;5084797;28;20036;-82
2023/04/12 06:47:59;;;;;;;4.68;1.55;;;;;;;;;;5077638;28;20121;-86
2023/04/12 06:50:25;;;;;;;1.95;1.00;;;;;;;;;;5076195;28;20040;-86
2023/04/12 06:52:51;;;;;;;3.33;1.40;;;;;;;;;;5077178;28;20028;-86
2023/04/12 06:55:16;;;;;;;3.80;1.48;;;;;;;;;;5075506;28;20038;-86
2023/04/12 06:57:43;;;;;;;2.50;1.30;;;;;;;;;;5077250;28;20505;-85
2023/04/12 07:00:10;;;;;;;3.17;1.20;;;;;;;;;;5075496;28;20037;-85
2023/04/12 07:02:35;;;;;;;4.22;1.48;;;;;;;;;;5077415;28;20072;-86
2023/04/12 07:05:01;;;;;;;4.07;1.30;;;;;;;;;;5077929;28;20047;-85
2023/04/12 07:07:26;;;;;;;3.47;1.30;;;;;;;;;;5093504;28;20040;-83
2023/04/12 07:09:51;;;;;;;2.47;1.50;;;;;;;;;;5054166;28;20067;-85
2023/04/12 07:12:17;;;;;;;3.70;1.50;;;;;;;;;;5076248;28;20063;-86
2023/04/12 07:14:43;;;;;;;4.18;1.30;;;;;;;;;;5078700;28;20067;-85
2023/04/12 07:17:08;;;;;;;3.22;1.30;;;;;;;;;;5077143;28;20032;-86
2023/04/12 07:19:35;;;;;;;2.95;1.50;;;;;;;;;;5078419;28;20052;-85
2023/04/12 07:22:00;;;;;;;2.05;1.40;;;;;;;;;;5077857;28;20060;-82
2023/04/12 07:24:26;;;;;;;6.13;1.58;;;;;;;;;;5073948;28;20427;-86
2023/04/12 07:26:53;;;;;;;3.03;1.40;;;;;;;;;;5090954;28;20042;-85
2023/04/12 07:29:18;;;;;;;3.45;1.35;;;;;;;;;;5079428;28;20094;-84
2023/04/12 07:31:44;;;;;;;2.15;1.20;;;;;;;;;;5078717;28;20032;-85
2023/04/12 07:34:10;;;;;;;4.13;1.63;;;;;;;;;;5079108;28;20033;-86
2023/04/12 07:36:35;;;;;;;4.75;1.40;;;;;;;;;;5079733;28;20040;-85
2023/04/12 07:39:01;;;;;;;2.95;1.20;;;;;;;;;;5081139;28;20047;-83
2023/04/12 07:41:27;;;;;;;3.15;1.35;;;;;;;;;;5082492;28;20401;-85
2023/04/12 07:43:53;;;;;;;2.95;1.40;;;;;;;;;;5074097;28;20036;-84
2023/04/12 07:46:19;;;;;;;2.95;1.42;;;;;;;;;;5074425;28;20036;-84
2023/04/12 07:48:45;;;;;;;4.30;1.30;;;;;;;;;;5073169;28;20100;-84
2023/04/12 07:51:11;;;;;;;3.97;1.42;;;;;;;;;;5074277;28;20174;-84
2023/04/12 07:53:36;;;;;;;2.40;1.30;;;;;;;;;;5073685;28;20413;-84
2023/04/12 07:56:05;;;;;;;8.77;2.00;;;;;;;;;;5073327;28;20094;-84
2023/04/12 07:58:31;;;;;;;4.13;1.92;;;;;;;;;;5081534;28;20017;-85
2023/04/12 08:00:57;;;;;;;5.00;2.10;;;;;;;;;;5077023;28;20054;-85
2023/04/12 08:03:23;;;;;;;3.88;1.42;;;;;;;;;;5076493;28;20021;-84
2023/04/12 08:05:52;;;;;;;2.40;1.45;;;;;;;;;;5076712;28;20033;-84
2023/04/12 08:08:19;;;;;;;5.68;2.08;;;;;;;;;;5074649;28;20064;-85
2023/04/12 08:10:45;;;;;;;4.25;2.22;;;;;;;;;;5076938;28;20052;-85
2023/04/12 08:13:10;;;;;;;6.45;2.20;;;;;;;;;;5076011;28;20478;-87
2023/04/12 08:18:03;;;;;;;3.85;1.80;;;;;;;;;;4979594;28;20078;-83
2023/04/12 08:20:29;;;;;;;4.15;2.20;;;;;;;;;;4983724;28;20559;-82
2023/04/12 08:22:55;;;;;;;3.70;1.90;;;;;;;;;;4954270;28;20405;-82
2023/04/12 08:25:21;;;;;;;3.90;2.17;;;;;;;;;;4980984;28;20089;-82
2023/04/12 08:27:48;;;;;;;3.83;1.60;;;;;;;;;;5008010;28;20026;-82
2023/04/12 08:30:14;;;;;;;2.95;1.63;;;;;;;;;;5000370;28;20034;-82
2023/04/12 08:32:40;;;;;;;3.30;1.20;;;;;;;;;;5001281;28;20041;-82
2023/04/12 08:35:06;;;;;;;4.13;1.80;;;;;;;;;;5000722;28;20038;-82
2023/04/12 08:37:32;;;;;;;3.47;1.58;;;;;;;;;;5000600;28;20066;-82
2023/04/12 08:40:05;;;;;;;2.63;1.30;;;;;;;;;;5000425;28;20097;-82
2023/04/12 08:42:33;;;;;;;3.83;1.50;;;;;;;;;;4998104;28;20062;-82
2023/04/12 08:44:58;;;;;;;2.65;1.50;;;;;;;;;;4984602;28;20042;-82
2023/04/12 08:47:24;;;;;;;3.38;1.80;;;;;;;;;;5000310;28;20518;-83
2023/04/12 08:49:50;;;;;;;3.55;1.50;;;;;;;;;;5000068;28;20069;-82
2023/04/12 08:52:16;;;;;;;2.58;1.40;;;;;;;;;;4986325;28;20099;-82
2023/04/12 08:54:41;;;;;;;2.75;1.40;;;;;;;;;;5000544;28;20034;-82
2023/04/12 08:57:08;;;;;;;4.00;1.58;;;;;;;;;;4997027;28;20030;-82
2023/04/12 08:59:37;;;;;;;4.53;1.63;;;;;;;;;;5000746;28;20057;-83
2023/04/12 09:02:03;;;;;;;4.10;1.85;;;;;;;;;;5000133;28;20041;-81
2023/04/12 09:04:28;;;;;;;3.67;1.60;;;;;;;;;;5000231;28;20034;-81
2023/04/12 09:06:55;;;;;;;6.15;1.70;;;;;;;;;;4996486;28;20038;-82
2023/04/12 09:09:48;;;;;;;4.00;1.60;;;;;;;;;;5000784;28;20030;-82
2023/04/12 09:12:14;;;;;;;4.63;1.65;;;;;;;;;;4998440;28;20048;-82
2023/04/12 09:14:43;;;;;;;3.97;1.52;;;;;;;;;;4985580;28;20117;-82
2023/04/12 09:17:27;;;;;;;7.15;2.05;;;;;;;;;;4998850;28;20121;-82
2023/04/12 09:19:55;;;;;;;3.83;1.63;;;;;;;;;;4998934;28;20047;-82
2023/04/12 09:22:37;;;;;;;4.78;1.85;;;;;;;;;;4999575;28;20492;-81
2023/04/12 09:25:03;;;;;;;4.50;2.03;;;;;;;;;;4999305;28;20034;-81
2023/04/12 09:27:29;;;;;;;5.13;2.15;;;;;;;;;;4999614;28;20052;-82
2023/04/12 09:30:07;;;;;;;3.67;1.67;;;;;;;;;;4996994;28;20071;-82
2023/04/12 09:32:33;;;;;;;3.70;1.67;;;;;;;;;;4998331;28;20423;-82
2023/04/12 09:35:02;;;;;;;7.43;1.77;;;;;;;;;;4992821;28;20034;-82
2023/04/12 09:37:27;;;;;;;3.85;1.63;;;;;;;;;;4999226;28;20096;-82
2023/04/12 09:40:01;;;;;;;5.18;1.80;;;;;;;;;;4998230;28;20042;-82
2023/04/12 09:42:27;;;;;;;4.20;1.70;;;;;;;;;;4999037;28;20643;-82
2023/04/12 09:44:53;;;;;;;3.42;1.63;;;;;;;;;;5000125;28;20121;-81
2023/04/12 09:47:19;;;;;;;3.45;1.60;;;;;;;;;;4999561;28;20065;-82
2023/04/12 09:49:45;;;;;;;5.15;1.70;;;;;;;;;;4997846;28;20113;-82
2023/04/12 09:52:12;;;;;;;3.45;1.52;;;;;;;;;;5000672;28;20062;-82
2023/04/12 09:54:43;;;;;;;4.65;1.52;;;;;;;;;;4999231;28;20087;-82
2023/04/12 09:57:09;;;;;;;5.55;2.20;;;;;;;;;;4998350;28;20030;-82
2023/04/12 09:59:39;;;;;;;7.18;2.30;;;;;;;;;;5000072;28;20038;-83
2023/04/12 10:02:16;;;;;;;2.88;1.80;;;;;;;;;;4996136;28;20049;-82
2023/04/12 10:04:42;;;;;;;4.30;1.75;;;;;;;;;;4996371;28;20045;-82
2023/04/12 10:07:08;;;;;;;3.67;1.55;;;;;;;;;;4999948;28;20042;-82
2023/04/12 10:09:36;;;;;;;4.70;1.60;;;;;;;;;;4999880;28;20093;-82
2023/04/12 10:12:02;;;;;;;5.30;2.08;;;;;;;;;;4999829;28;20035;-82
2023/04/12 10:14:29;;;;;;;3.15;1.55;;;;;;;;;;4997975;28;20046;-83
2023/04/12 10:16:59;;;;;;;3.88;1.70;;;;;;;;;;4995676;28;20030;-82
2023/04/12 10:19:27;;;;;;;2.38;1.50;;;;;;;;;;4999124;28;20034;-83
2023/04/12 10:21:57;;;;;;;5.55;2.30;;;;;;;;;;4999587;28;20515;-82
2023/04/12 10:24:24;;;;;;;2.58;1.23;;;;;;;;;;4997763;28;20070;-82
2023/04/12 10:26:51;;;;;;;2.92;1.30;;;;;;;;;;4999833;28;20061;-81
2023/04/12 10:29:35;;;;;;;2.67;1.30;;;;;;;;;;5000140;28;20030;-82
2023/04/12 10:32:23;;;;;;;6.30;1.20;;;;;;;;;;4999916;28;20038;-82
2023/04/12 10:34:53;;;;;;;1.70;1.00;;;;;;;;;;4991856;28;20038;-82
2023/04/12 10:37:20;;;;;;;2.10;1.15;;;;;;;;;;4998216;28;20035;-82
2023/04/12 10:39:52;;;;;;;4.32;1.10;;;;;;;;;;5000038;28;20404;-82
2023/04/12 10:42:24;;;;;;;2.83;1.25;;;;;;;;;;5001019;28;20073;-82
2023/04/12 10:44:51;;;;;;;3.53;1.20;;;;;;;;;;4999648;28;20045;-82
2023/04/12 10:47:48;;;;;;;2.90;1.25;;;;;;;;;;4987491;28;20039;-82
2023/04/12 10:50:28;;;;;;;2.22;1.08;;;;;;;;;;5000148;28;20039;-82
2023/04/12 10:53:14;;;;;;;2.35;1.20;;;;;;;;;;4997579;28;20046;-83
2023/04/12 10:55:41;;;;;;;2.10;1.20;;;;;;;;;;4999570;28;20034;-84
2023/04/12 10:58:07;;;;;;;1.92;1.20;;;;;;;;;;4998288;28;20084;-83
2023/04/12 11:00:58;;;;;;;1.90;1.10;;;;;;;;;;5000818;28;20042;-84
2023/04/12 11:03:25;;;;;;;2.85;1.17;;;;;;;;;;4997721;28;20384;-83
2023/04/12 11:06:03;;;;;;;1.80;1.20;;;;;;;;;;5001479;28;20045;-83
2023/04/12 11:08:47;;;;;;;2.03;1.05;;;;;;;;;;5004030;28;20057;-83
2023/04/12 11:11:25;;;;;;;1.98;1.30;;;;;;;;;;5004572;28;20121;-83
2023/04/12 11:13:54;;;;;;;2.00;1.13;;;;;;;;;;5002438;28;20034;-83
2023/04/12 11:16:19;;;;;;;1.83;1.30;;;;;;;;;;5003744;28;20049;-83
2023/04/12 11:18:45;;;;;;;2.42;1.20;;;;;;;;;;5002873;28;20034;-82
2023/04/12 11:21:11;;;;;;;3.67;1.40;;;;;;;;;;5000786;28;20026;-82
2023/04/12 11:23:38;;;;;;;2.97;1.63;;;;;;;;;;5003491;28;20527;-82
2023/04/12 11:26:05;;;;;;;2.47;1.20;;;;;;;;;;5003606;28;20039;-83
2023/04/12 11:28:30;;;;;;;3.83;1.90;;;;;;;;;;5013844;28;20035;-84
2023/04/12 11:30:55;;;;;;;4.15;1.50;;;;;;;;;;5005093;28;20141;-83
2023/04/12 11:33:35;;;;;;;2.42;1.20;;;;;;;;;;5009484;28;20094;-83
2023/04/12 11:36:11;;;;;;;2.25;1.30;;;;;;;;;;5003337;28;20042;-83
2023/04/12 11:38:37;;;;;;;2.67;1.60;;;;;;;;;;5001775;28;20049;-82
2023/04/12 11:41:05;;;;;;;2.20;1.30;;;;;;;;;;5006154;28;20087;-84
2023/04/12 11:43:33;;;;;;;1.95;1.00;;;;;;;;;;5003562;28;20034;-83
2023/04/12 11:45:59;;;;;;;2.25;1.20;;;;;;;;;;5001699;28;20045;-82
2023/04/12 11:48:28;;;;;;;1.27;1.00;;;;;;;;;;5005545;28;20045;-82
2023/04/12 11:50:55;;;;;;;4.00;1.50;;;;;;;;;;4987622;28;20041;-83
2023/04/12 11:53:27;;;;;;;3.28;1.20;;;;;;;;;;5004320;28;20042;-83
2023/04/12 11:55:55;;;;;;;3.67;2.22;;;;;;;;;;5005798;28;20041;-84
2023/04/12 11:58:27;;;;;;;3.53;1.42;;;;;;;;;;5001542;28;20038;-83
2023/04/12 12:00:56;;;;;;;39.72;22.00;;;;;;;;;;5005515;28;20034;-83
2023/04/12 12:03:21;;;;;;;2.92;1.80;;;;;;;;;;5005408;28;20026;-82
2023/04/12 12:05:47;;;;;;;4.35;1.67;;;;;;;;;;5005666;28;20041;-83
2023/04/12 12:08:14;;;;;;;5.60;3.75;;;;;;;;;;5006200;28;20038;-83
2023/04/12 12:10:39;;;;;;;3.65;1.60;;;;;;;;;;5002571;28;20038;-82
2023/04/12 12:13:14;;;;;;;2.53;1.30;;;;;;;;;;5005954;28;20124;-83
2023/04/12 12:15:46;;;;;;;1.67;1.02;;;;;;;;;;5005195;28;20060;-83
2023/04/12 12:18:12;;;;;;;6.18;4.10;;;;;;;;;;5004482;28;20034;-83
2023/04/12 12:20:55;;;;;;;3.65;1.77;;;;;;;;;;5004974;28;20088;-83
2023/04/12 12:23:32;;;;;;;2.30;1.10;;;;;;;;;;5005445;28;20061;-81
2023/04/12 12:26:02;;;;;;;2.00;1.10;;;;;;;;;;4997075;28;20053;-81
2023/04/12 12:28:28;;;;;;;1.83;1.02;;;;;;;;;;5000294;28;20038;-82
2023/04/12 12:30:56;;;;;;;4.68;3.10;;;;;;;;;;5003346;28;20042;-83
2023/04/12 12:33:23;;;;;;;1.80;1.02;;;;;;;;;;5003295;28;20069;-82
2023/04/12 12:35:56;;;;;;;2.75;1.60;;;;;;;;;;5006879;28;20035;-82
2023/04/12 12:38:22;;;;;;;5.95;4.00;;;;;;;;;;5005818;28;20077;-82
2023/04/12 12:40:49;;;;;;;2.42;1.35;;;;;;;;;;5006633;28;20093;-83
2023/04/12 12:43:20;;;;;;;3.08;1.10;;;;;;;;;;5003742;28;20105;-83
2023/04/12 12:45:49;;;;;;;2.95;0.93;;;;;;;;;;5004578;28;20038;-83
2023/04/12 12:48:14;;;;;;;1.73;0.93;;;;;;;;;;5003484;28;20553;-84
2023/04/12 12:50:40;;;;;;;3.10;0.90;;;;;;;;;;5004315;28;20098;-83
2023/04/12 12:53:07;;;;;;;2.45;1.00;;;;;;;;;;5000905;28;20065;-82
2023/04/12 12:55:32;;;;;;;1.42;0.90;;;;;;;;;;5000253;28;20049;-83
2023/04/12 12:57:59;;;;;;;5.55;1.23;;;;;;;;;;5002377;28;20046;-83
2023/04/12 13:00:27;;;;;;;2.00;1.00;;;;;;;;;;5000641;28;20039;-82
2023/04/12 13:02:53;;;;;;;2.70;0.80;;;;;;;;;;5001296;28;20030;-84
2023/04/12 13:05:20;;;;;;;2.83;1.00;;;;;;;;;;5001934;28;20090;-82
2023/04/12 13:07:46;;;;;;;1.65;1.00;;;;;;;;;;4996920;28;20046;-83
2023/04/12 13:10:12;;;;;;;7.05;2.40;;;;;;;;;;5002264;28;20070;-83
2023/04/12 13:12:38;;;;;;;1.50;0.98;;;;;;;;;;5003400;28;20053;-82
2023/04/12 13:15:03;;;;;;;2.38;1.20;;;;;;;;;;5003269;28;20034;-82
2023/04/12 13:17:30;;;;;;;2.03;1.00;;;;;;;;;;5000549;28;20034;-82
2023/04/12 13:19:56;;;;;;;1.65;0.73;;;;;;;;;;4997587;28;20090;-82
2023/04/12 13:22:22;;;;;;;4.63;2.33;;;;;;;;;;4999557;28;20042;-83
2023/04/12 13:24:48;;;;;;;1.77;1.00;;;;;;;;;;4994942;28;20042;-84
2023/04/12 13:27:14;;;;;;;1.52;0.82;;;;;;;;;;4999310;28;20108;-84
2023/04/12 13:29:40;;;;;;;2.65;0.90;;;;;;;;;;4998328;28;20026;-82
2023/04/12 13:32:05;;;;;;;0.88;0.60;;;;;;;;;;4998787;28;20456;-82
2023/04/12 13:34:31;;;;;;;1.88;0.90;;;;;;;;;;4995073;28;20392;-82
2023/04/12 13:36:57;;;;;;;1.55;0.85;;;;;;;;;;5002646;28;20037;-81
2023/04/12 13:39:23;;;;;;;3.92;1.00;;;;;;;;;;4999670;28;20044;-83
2023/04/12 13:41:50;;;;;;;1.15;0.60;;;;;;;;;;4996416;28;20105;-84
2023/04/12 13:44:15;;;;;;;2.58;1.50;;;;;;;;;;4994318;28;20080;-82
2023/04/12 13:46:40;;;;;;;3.22;1.95;;;;;;;;;;4992862;28;20038;-82
2023/04/12 13:49:06;;;;;;;3.88;2.53;;;;;;;;;;4996821;28;20057;-83
2023/04/12 13:51:32;;;;;;;4.15;2.92;;;;;;;;;;4993837;28;20381;-83
2023/04/12 13:53:57;;;;;;;1.60;1.08;;;;;;;;;;5001784;28;20026;-83
2023/04/12 13:56:23;;;;;;;4.85;2.40;;;;;;;;;;4996363;28;20500;-83
2023/04/12 13:58:49;;;;;;;4.30;2.00;;;;;;;;;;4996657;28;20060;-84
2023/04/12 14:01:14;;;;;;;3.47;1.98;;;;;;;;;;4996603;28;20493;-82
2023/04/12 14:03:40;;;;;;;3.45;1.40;;;;;;;;;;4996186;28;20034;-83
2023/04/12 14:06:06;;;;;;;2.60;1.63;;;;;;;;;;4997194;28;20117;-83
2023/04/12 14:08:32;;;;;;;2.92;1.77;;;;;;;;;;4997153;28;20061;-83
2023/04/12 14:10:57;;;;;;;2.58;1.80;;;;;;;;;;4995865;28;20117;-84
2023/04/12 14:13:25;;;;;;;1.40;0.90;;;;;;;;;;4997150;28;20644;-84
2023/04/12 14:15:51;;;;;;;2.03;1.20;;;;;;;;;;4996346;28;20034;-84
2023/04/12 14:18:18;;;;;;;1.48;0.88;;;;;;;;;;4991901;28;20030;-84
2023/04/12 14:20:47;;;;;;;1.13;0.80;;;;;;;;;;4994579;28;20054;-83
2023/04/12 14:23:13;;;;;;;3.28;0.93;;;;;;;;;;4993870;28;20042;-83
2023/04/12 14:25:39;;;;;;;1.80;0.80;;;;;;;;;;4993634;28;20042;-83
2023/04/12 14:28:05;;;;;;;3.97;0.95;;;;;;;;;;4994397;28;20523;-83
2023/04/12 14:30:30;;;;;;;1.02;0.90;;;;;;;;;;4993896;28;20035;-84
2023/04/12 14:32:56;;;;;;;1.27;0.80;;;;;;;;;;4995397;28;20416;-83
2023/04/12 14:35:21;;;;;;;1.10;0.70;;;;;;;;;;4993842;28;20041;-83
2023/04/12 14:37:47;;;;;;;4.47;1.30;;;;;;;;;;4984445;28;20061;-82
2023/04/12 14:40:13;;;;;;;2.70;1.10;;;;;;;;;;4991608;28;20106;-82
2023/04/12 14:42:39;;;;;;;1.48;0.98;;;;;;;;;;4995546;28;20038;-82
2023/04/12 14:45:06;;;;;;;1.15;0.68;;;;;;;;;;4997915;28;20048;-82
2023/04/12 14:47:33;;;;;;;1.25;0.60;;;;;;;;;;4997479;28;20125;-82
2023/04/12 14:49:58;;;;;;;1.20;0.70;;;;;;;;;;4978438;28;20039;-81
2023/04/12 14:52:25;;;;;;;1.50;0.60;;;;;;;;;;4989613;28;20107;-81